Time;durP1;ratioP1;P1;durP2;ratioP2;P2;SDS_P1;SDS_P2;PMS_P1;PMS_P2;Temp;Humidity;BMP_temperature;BMP_pressure;BME280_temperature;BME280_humidity;BME280_pressure;Samples;Min_cycle;Max_cycle;Signal;HPM_P1;HPM_P2
2022/12/14 00:00:31;;;;;;;1999.90;999.90;;;;;;;;;;5064214;28;20102;-82
2022/12/14 00:02:57;;;;;;;1999.90;999.90;;;;;;;;;;5056245;28;20106;-82
2022/12/14 00:05:23;;;;;;;1999.90;999.90;;;1.10;99.90;;;;;;5059203;28;20051;-82
2022/12/14 00:07:49;;;;;;;1999.90;999.90;;;;;;;;;;5063925;28;20037;-82
2022/12/14 00:10:15;;;;;;;1999.90;999.90;;;2.00;99.90;;;;;;5069307;28;20036;-82
2022/12/14 00:12:41;;;;;;;1999.90;999.90;;;;;;;;;;5063536;28;20051;-82
2022/12/14 00:15:08;;;;;;;1999.90;999.90;;;-0.80;99.90;;;;;;5070470;28;20141;-82
2022/12/14 00:17:34;;;;;;;1999.90;999.90;;;0.80;99.90;;;;;;5073273;28;20055;-82
2022/12/14 00:20:00;;;;;;;1999.90;999.90;;;;;;;;;;5053416;28;20080;-83
2022/12/14 00:22:26;;;;;;;1999.90;999.90;;;1.10;99.90;;;;;;5063450;28;20102;-82
2022/12/14 00:24:52;;;;;;;1999.90;999.90;;;;;;;;;;5073497;28;20045;-82
2022/12/14 00:27:18;;;;;;;1999.90;999.90;;;-0.70;99.90;;;;;;5074820;28;20416;-82
2022/12/14 00:29:43;;;;;;;1999.90;999.90;;;0.30;99.90;;;;;;5057131;28;20041;-82
2022/12/14 00:32:09;;;;;;;1999.90;999.90;;;1.50;99.90;;;;;;5057670;28;20052;-82
2022/12/14 00:34:35;;;;;;;1999.90;999.90;;;-1.00;99.90;;;;;;5073456;28;20072;-81
2022/12/14 00:37:01;;;;;;;1999.90;999.90;;;0.80;99.90;;;;;;5073666;28;20393;-82
2022/12/14 00:39:26;;;;;;;1999.90;999.90;;;1.20;99.90;;;;;;5072484;28;20454;-82
2022/12/14 00:41:52;;;;;;;1999.90;999.90;;;-1.30;99.90;;;;;;5074112;28;20477;-82
2022/12/14 00:44:18;;;;;;;1999.90;999.90;;;-0.20;99.90;;;;;;5073352;28;20060;-82
2022/12/14 00:46:43;;;;;;;1999.90;999.90;;;2.20;99.90;;;;;;5055949;28;20045;-82
2022/12/14 00:49:10;;;;;;;1999.90;999.90;;;-0.10;99.90;;;;;;5058011;28;20115;-82
2022/12/14 00:51:35;;;;;;;1999.90;999.90;;;-0.50;99.90;;;;;;5056133;28;20047;-82
2022/12/14 00:54:01;;;;;;;1999.90;999.90;;;-0.20;1.00;;;;;;5054792;28;20057;-82
2022/12/14 00:56:26;;;;;;;1999.90;999.90;;;0.10;1.00;;;;;;5074299;28;20068;-81
2022/12/14 00:58:53;;;;;;;1999.90;999.90;;;0.20;1.00;;;;;;5071310;28;20061;-85
2022/12/14 01:01:20;;;;;;;1999.90;999.90;;;0.30;99.90;;;;;;5073144;28;20048;-83
2022/12/14 01:03:46;;;;;;;1999.90;999.90;;;;;;;;;;5068822;28;20155;-82
2022/12/14 01:06:16;;;;;;;1999.90;999.90;;;1.90;99.90;;;;;;5052725;28;20168;-82
2022/12/14 01:08:42;;;;;;;1999.90;999.90;;;0.60;99.90;;;;;;5065273;28;20048;-83
2022/12/14 01:11:08;;;;;;;1999.90;999.90;;;0.50;99.90;;;;;;5071103;28;20044;-81
2022/12/14 01:13:35;;;;;;;1999.90;999.90;;;0.30;99.90;;;;;;5070952;28;20051;-81
2022/12/14 01:16:05;;;;;;;1999.90;999.90;;;-0.70;99.90;;;;;;5069141;28;20546;-81
2022/12/14 01:18:33;;;;;;;1999.90;999.90;;;-0.10;99.90;;;;;;5075116;28;20044;-82
2022/12/14 01:21:10;;;;;;;1999.90;999.90;;;-1.40;99.90;;;;;;5054591;28;20405;-82
2022/12/14 01:23:36;;;;;;;1999.90;999.90;;;-1.10;99.90;;;;;;5062085;28;20053;-82
2022/12/14 01:26:02;;;;;;;1999.90;999.90;;;-1.60;99.90;;;;;;5052737;28;20130;-82
2022/12/14 01:28:28;;;;;;;1999.90;999.90;;;;;;;;;;5056290;28;20501;-82
2022/12/14 01:30:54;;;;;;;1999.90;999.90;;;3.10;99.90;;;;;;5062153;28;20396;-82
2022/12/14 01:33:19;;;;;;;1999.90;999.90;;;0.00;99.90;;;;;;5074338;28;20044;-83
2022/12/14 01:35:45;;;;;;;1999.90;999.90;;;3.00;99.90;;;;;;5073647;28;20083;-81
2022/12/14 01:38:10;;;;;;;1999.90;999.90;;;0.10;99.90;;;;;;5073405;28;20511;-81
2022/12/14 01:40:36;;;;;;;1999.90;999.90;;;-0.50;99.90;;;;;;5070783;28;20036;-82
2022/12/14 01:43:02;;;;;;;1999.90;999.90;;;;;;;;;;5072983;28;20041;-82
2022/12/14 01:45:28;;;;;;;1999.90;999.90;;;-0.40;99.90;;;;;;5064692;28;20547;-82
2022/12/14 01:48:01;;;;;;;1999.90;999.90;;;1.00;99.90;;;;;;5062925;28;20397;-82
2022/12/14 01:50:37;;;;;;;1999.90;999.90;;;0.60;99.90;;;;;;5070415;28;20094;-82
2022/12/14 01:53:21;;;;;;;1999.90;999.90;;;0.70;99.90;;;;;;5052879;28;20049;-83
2022/12/14 01:55:53;;;;;;;1999.90;999.90;;;-1.40;99.90;;;;;;5051212;28;20369;-82
2022/12/14 01:58:24;;;;;;;1999.90;999.90;;;-2.70;99.90;;;;;;5052606;28;20551;-82
2022/12/14 02:00:54;;;;;;;1999.90;999.90;;;0.20;99.90;;;;;;5053614;28;20048;-84
2022/12/14 02:03:29;;;;;;;1999.90;999.90;;;0.10;99.90;;;;;;5073043;28;20322;-84
2022/12/14 02:06:06;;;;;;;1999.90;999.90;;;-0.40;99.90;;;;;;5073074;28;20053;-84
2022/12/14 02:08:32;;;;;;;1999.90;999.90;;;;;;;;;;5071820;28;20495;-84
2022/12/14 02:10:59;;;;;;;1999.90;999.90;;;-0.30;99.90;;;;;;5069668;28;20053;-84
2022/12/14 02:13:35;;;;;;;1999.90;999.90;;;0.80;99.90;;;;;;5071304;28;20106;-84
2022/12/14 02:16:01;;;;;;;1999.90;999.90;;;0.80;99.90;;;;;;5072509;28;20052;-84
2022/12/14 02:18:29;;;;;;;1999.90;999.90;;;1.80;99.90;;;;;;5069296;28;20056;-83
2022/12/14 02:21:10;;;;;;;1999.90;999.90;;;-0.80;99.90;;;;;;5065634;28;20048;-85
2022/12/14 02:23:39;;;;;;;1999.90;999.90;;;-1.10;99.90;;;;;;5058565;28;20044;-84
2022/12/14 02:26:33;;;;;;;1999.90;999.90;;;-1.10;99.90;;;;;;5064675;28;20120;-85
2022/12/14 02:29:25;;;;;;;1999.90;999.90;;;-1.00;99.90;;;;;;5067903;28;20059;-84
2022/12/14 02:32:14;;;;;;;1999.90;999.90;;;-0.90;99.90;;;;;;5060486;28;20124;-84
2022/12/14 02:34:43;;;;;;;1999.90;999.90;;;-0.30;99.90;;;;;;5071136;28;20044;-84
2022/12/14 02:37:45;;;;;;;1999.90;999.90;;;-2.50;99.90;;;;;;5059070;28;20049;-85
2022/12/14 02:40:35;;;;;;;1999.90;999.90;;;-0.20;99.90;;;;;;5064271;28;20123;-84
2022/12/14 02:43:05;;;;;;;1999.90;999.90;;;0.30;99.90;;;;;;5053781;28;20651;-84
2022/12/14 02:45:58;;;;;;;1999.90;999.90;;;-3.50;99.90;;;;;;5060119;28;20101;-84
2022/12/14 02:48:29;;;;;;;1999.90;999.90;;;0.00;99.90;;;;;;5057560;28;20055;-84
2022/12/14 02:50:58;;;;;;;1999.90;999.90;;;-0.90;99.90;;;;;;5066653;28;20397;-85
2022/12/14 02:53:45;;;;;;;1999.90;999.90;;;-1.10;99.90;;;;;;5067201;28;20052;-84
2022/12/14 02:56:18;;;;;;;1999.90;999.90;;;-3.00;99.90;;;;;;5063890;28;20053;-84
2022/12/14 02:58:49;;;;;;;1999.90;999.90;;;-2.30;99.90;;;;;;5053037;28;20489;-84
2022/12/14 03:01:19;;;;;;;1999.90;999.90;;;-1.50;99.90;;;;;;5061545;28;20477;-84
2022/12/14 03:03:45;;;;;;;1999.90;999.90;;;;;;;;;;5061964;28;20037;-84
2022/12/14 03:06:24;;;;;;;1999.90;999.90;;;-1.70;99.90;;;;;;5066858;28;20496;-85
2022/12/14 03:08:51;;;;;;;1999.90;999.90;;;;;;;;;;5066953;28;20158;-85
2022/12/14 03:11:23;;;;;;;1999.90;999.90;;;-2.20;99.90;;;;;;5062048;28;20098;-84
2022/12/14 03:13:56;;;;;;;1999.90;999.90;;;-0.20;99.90;;;;;;5057421;28;20493;-84
2022/12/14 03:16:29;;;;;;;1999.90;999.90;;;-1.80;99.90;;;;;;5071290;28;20088;-83
2022/12/14 03:19:01;;;;;;;1999.90;999.90;;;-1.80;99.90;;;;;;5051998;28;20083;-84
2022/12/14 03:21:34;;;;;;;1999.90;999.90;;;-1.90;99.90;;;;;;5055738;28;20544;-83
2022/12/14 03:24:04;;;;;;;1999.90;999.90;;;-0.30;99.90;;;;;;5062471;28;20136;-84
2022/12/14 03:26:47;;;;;;;1999.90;999.90;;;-1.90;99.90;;;;;;5058616;28;20124;-84
2022/12/14 03:29:29;;;;;;;1999.90;999.90;;;-2.00;99.90;;;;;;5055125;28;20417;-86
2022/12/14 03:32:08;;;;;;;1999.90;999.90;;;-2.20;99.90;;;;;;5069572;28;20119;-84
2022/12/14 03:34:44;;;;;;;1999.90;999.90;;;-1.20;99.90;;;;;;5057899;28;20040;-84
2022/12/14 03:37:20;;;;;;;1999.90;999.90;;;-3.40;99.90;;;;;;5068180;28;20485;-83
2022/12/14 03:39:46;;;;;;;1999.90;999.90;;;-2.00;99.90;;;;;;5067569;28;20361;-83
2022/12/14 03:42:21;;;;;;;1999.90;999.90;;;-2.10;99.90;;;;;;5053269;28;20147;-84
2022/12/14 03:44:49;;;;;;;1999.90;999.90;;;-2.00;99.90;;;;;;5060592;28;20311;-81
2022/12/14 03:47:42;;;;;;;1999.90;999.90;;;-1.40;99.90;;;;;;5041802;28;20405;-84
2022/12/14 03:50:31;;;;;;;1999.90;999.90;;;-2.10;99.90;;;;;;5069078;28;20052;-84
2022/12/14 03:53:45;;;;;;;1999.90;999.90;;;-2.10;99.90;;;;;;5065593;28;20057;-82
2022/12/14 03:56:11;;;;;;;1999.90;999.90;;;;;;;;;;5032181;28;20387;-82
2022/12/14 03:59:01;;;;;;;1999.90;999.90;;;-1.10;99.90;;;;;;5067822;28;20631;-82
2022/12/14 04:02:10;;;;;;;1999.90;999.90;;;-0.40;99.90;;;;;;5065615;28;20049;-82
2022/12/14 04:04:36;;;;;;;1999.90;999.90;;;;;;;;;;5020708;28;20063;-87
2022/12/14 04:07:12;;;;;;;1999.90;999.90;;;-2.30;99.90;;;;;;5052136;28;20130;-83
2022/12/14 04:09:50;;;;;;;1999.90;999.90;;;-2.20;99.90;;;;;;5053121;28;20776;-84
2022/12/14 04:21:06;;;;;;;1999.90;999.90;;;-2.70;99.90;;;;;;5070446;28;20044;-83
2022/12/14 04:26:27;;;;;;;1999.90;999.90;;;-2.70;99.90;;;;;;5068374;28;20048;-86
2022/12/14 04:32:19;;;;;;;1999.90;999.90;;;-3.50;99.90;;;;;;5071393;28;20052;-81
2022/12/14 04:34:49;;;;;;;1999.90;999.90;;;-2.10;99.90;;;;;;5052282;28;20149;-82
2022/12/14 04:37:18;;;;;;;1999.90;999.90;;;-2.10;99.90;;;;;;5072702;28;20048;-82
2022/12/14 04:40:08;;;;;;;1999.90;999.90;;;-0.20;99.90;;;;;;5072183;28;20451;-82
2022/12/14 04:42:43;;;;;;;1999.90;999.90;;;-2.40;99.90;;;;;;5073157;28;20044;-82
2022/12/14 04:45:14;;;;;;;1999.90;999.90;;;-2.60;99.90;;;;;;5068741;28;20418;-82
2022/12/14 04:47:47;;;;;;;1999.90;999.90;;;-3.50;99.90;;;;;;5063964;28;20044;-81
2022/12/14 04:50:30;;;;;;;1999.90;999.90;;;-2.30;99.90;;;;;;5072392;28;20044;-81
2022/12/14 04:53:07;;;;;;;1999.90;999.90;;;-2.00;99.90;;;;;;5073038;28;20192;-81
2022/12/14 04:55:45;;;;;;;1999.90;999.90;;;-2.50;99.90;;;;;;5054887;28;20056;-82
2022/12/14 04:58:21;;;;;;;1999.90;999.90;;;-2.20;99.90;;;;;;5057300;28;20056;-81
2022/12/14 05:01:00;;;;;;;1999.90;999.90;;;-2.00;99.90;;;;;;5053802;28;20052;-83
2022/12/14 05:03:40;;;;;;;1999.90;999.90;;;-1.70;99.90;;;;;;5065335;28;20508;-85
2022/12/14 05:06:06;;;;;;;1999.90;999.90;;;-2.90;99.90;;;;;;5056973;28;20048;-81
2022/12/14 05:08:49;;;;;;;1999.90;999.90;;;0.60;99.90;;;;;;5051705;28;20056;-81
2022/12/14 05:11:44;;;;;;;1999.90;999.90;;;-2.00;99.90;;;;;;5093469;28;20059;-82
2022/12/14 05:14:23;;;;;;;1999.90;999.90;;;-2.00;99.90;;;;;;5089677;28;20040;-82
2022/12/14 05:16:49;;;;;;;1999.90;999.90;;;-1.80;99.90;;;;;;5093883;28;20112;-81
2022/12/14 05:19:15;;;;;;;1999.90;999.90;;;-3.00;99.90;;;;;;5039298;28;20049;-81
2022/12/14 05:21:48;;;;;;;1999.90;999.90;;;;;;;;;;5057589;28;20565;-82
2022/12/14 05:24:15;;;;;;;1999.90;999.90;;;-2.20;99.90;;;;;;5058787;28;20041;-83
2022/12/14 05:26:41;;;;;;;1999.90;999.90;;;-3.00;99.90;;;;;;5081515;28;20039;-83
2022/12/14 05:29:07;;;;;;;1999.90;999.90;;;-5.20;99.90;;;;;;5061441;28;20121;-86
2022/12/14 05:31:33;;;;;;;1999.90;999.90;;;-2.30;99.90;;;;;;5072433;28;20477;-85
2022/12/14 05:33:59;;;;;;;1999.90;999.90;;;-2.10;99.90;;;;;;5083925;28;20784;-85
2022/12/14 05:36:25;;;;;;;1999.90;999.90;;;;;;;;;;5076203;28;20140;-85
2022/12/14 05:38:51;;;;;;;1999.90;999.90;;;-3.20;99.90;;;;;;5078244;28;20056;-85
2022/12/14 05:41:17;;;;;;;1999.90;999.90;;;;;;;;;;5091531;28;20044;-85
2022/12/14 05:43:42;;;;;;;1999.90;999.90;;;-1.30;99.90;;;;;;5074222;28;20131;-85
2022/12/14 05:46:10;;;;;;;1999.90;999.90;;;-3.70;99.90;;;;;;5092613;28;20128;-85
2022/12/14 05:48:36;;;;;;;;;;;-2.70;99.90;;;;;;5084582;28;20063;-83
2022/12/14 05:51:10;;;;;;;1999.90;999.90;;;-2.80;99.90;;;;;;5056458;28;19920;-83
2022/12/14 05:53:37;;;;;;;1999.90;999.90;;;-1.60;99.90;;;;;;5035568;28;20178;-83
2022/12/14 05:56:04;;;;;;;1999.90;999.90;;;-3.50;99.90;;;;;;5051450;28;20428;-82
2022/12/14 05:58:31;;;;;;;1999.90;999.90;;;;;;;;;;5051810;28;20783;-83
2022/12/14 06:01:14;;;;;;;1999.90;999.90;;;-3.70;94.90;;;;;;5071710;28;20052;-82
2022/12/14 06:03:40;;;;;;;1999.90;999.90;;;-2.40;99.90;;;;;;5056047;28;20068;-82
2022/12/14 06:06:08;;;;;;;1999.90;999.90;;;-2.90;99.90;;;;;;5069937;28;20037;-85
2022/12/14 06:08:39;;;;;;;1999.90;999.90;;;-2.90;99.90;;;;;;5071656;28;20044;-84
2022/12/14 06:11:26;;;;;;;1999.90;999.90;;;-3.20;99.90;;;;;;5069657;28;20051;-83
2022/12/14 06:13:52;;;;;;;1999.90;999.90;;;-3.00;99.90;;;;;;5068582;28;20060;-83
2022/12/14 06:16:20;;;;;;;1999.90;999.90;;;-2.00;99.90;;;;;;5053197;28;20056;-83
2022/12/14 06:18:54;;;;;;;1999.90;999.90;;;-3.00;99.90;;;;;;5061584;28;20089;-84
2022/12/14 06:21:24;;;;;;;1999.90;999.90;;;-2.90;99.90;;;;;;5057344;28;20044;-82
2022/12/14 06:23:50;;;;;;;1999.90;999.90;;;-2.60;96.20;;;;;;5060932;28;20610;-82
2022/12/14 06:26:17;;;;;;;1999.90;999.90;;;;;;;;;;5065282;28;20120;-83
2022/12/14 06:28:43;;;;;;;1999.90;999.90;;;;;;;;;;5059249;28;20044;-84
2022/12/14 06:31:15;;;;;;;1999.90;999.90;;;-3.60;99.90;;;;;;5077195;28;20477;-84
2022/12/14 06:33:41;;;;;;;1999.90;999.90;;;-2.30;99.90;;;;;;5066209;28;20090;-84
2022/12/14 06:36:22;;;;;;;1999.90;999.90;;;-2.20;99.90;;;;;;5071434;28;20471;-83
2022/12/14 06:38:54;;;;;;;1999.90;999.90;;;-2.90;99.90;;;;;;5066380;28;20044;-84
2022/12/14 06:41:21;;;;;;;1999.90;999.90;;;-3.00;91.80;;;;;;5064857;28;20132;-85
2022/12/14 06:43:48;;;;;;;1999.90;999.90;;;;;;;;;;5070474;28;20056;-85
2022/12/14 06:46:15;;;;;;;1999.90;999.90;;;-2.80;99.20;;;;;;5048211;28;20049;-84
2022/12/14 06:48:41;;;;;;;1999.90;999.90;;;-3.10;99.90;;;;;;5052652;28;20106;-84
2022/12/14 06:51:07;;;;;;;1999.90;999.90;;;-3.00;96.30;;;;;;5053557;28;20122;-84
2022/12/14 06:53:34;;;;;;;1999.90;999.90;;;-1.40;97.30;;;;;;5052036;28;20102;-85
2022/12/14 06:56:12;;;;;;;1999.90;999.90;;;-2.70;97.30;;;;;;5051195;28;20570;-85
2022/12/14 06:58:38;;;;;;;1999.90;999.90;;;-3.00;99.10;;;;;;5052511;28;20433;-84
2022/12/14 07:01:06;;;;;;;1999.90;999.90;;;-2.60;94.00;;;;;;5063535;28;20128;-85
2022/12/14 07:03:32;;;;;;;1999.90;999.90;;;-4.00;75.80;;;;;;5069268;28;20040;-85
2022/12/14 07:05:59;;;;;;;1999.90;999.90;;;-3.50;94.10;;;;;;5068540;28;20058;-85
2022/12/14 07:08:26;;;;;;;1999.90;999.90;;;-2.80;92.10;;;;;;5059019;28;20087;-85
2022/12/14 07:10:52;;;;;;;1999.90;999.90;;;;;;;;;;5037085;28;20043;-84
2022/12/14 07:13:18;;;;;;;1999.90;999.90;;;;;;;;;;5086020;28;20477;-85
2022/12/14 07:15:51;;;;;;;1999.90;999.90;;;-3.20;61.10;;;;;;5064107;28;20114;-85
2022/12/14 07:18:19;;;;;;;1999.90;999.90;;;-1.40;35.00;;;;;;5044440;28;20543;-84
2022/12/14 07:20:56;;;;;;;1999.90;999.90;;;-2.40;57.30;;;;;;5050818;28;20084;-85
2022/12/14 07:23:23;;;;;;;1999.90;999.90;;;;;;;;;;5061894;28;20055;-84
2022/12/14 07:25:49;;;;;;;1999.90;999.90;;;;;;;;;;5068390;28;20075;-84
2022/12/14 07:28:15;;;;;;;1999.90;999.90;;;-3.00;36.10;;;;;;5068389;28;20087;-85
2022/12/14 07:30:41;;;;;;;1999.90;999.90;;;;;;;;;;5065703;28;20068;-84
2022/12/14 07:33:07;;;;;;;1999.90;999.90;;;;;;;;;;5070132;28;20119;-84
2022/12/14 07:35:33;;;;;;;1999.90;999.90;;;-3.20;15.00;;;;;;5058721;28;20045;-86
2022/12/14 07:37:59;;;;;;;1999.90;999.90;;;;;;;;;;5069533;28;20049;-85
2022/12/14 07:40:25;;;;;;;1999.90;999.90;;;;;;;;;;5051889;28;20493;-86
2022/12/14 07:42:51;;;;;;;1999.90;999.90;;;;;;;;;;5063609;28;20446;-85
2022/12/14 07:45:17;;;;;;;1999.90;999.90;;;;;;;;;;5061528;28;20071;-85
2022/12/14 07:47:43;;;;;;;1999.90;999.90;;;;;;;;;;5052016;28;20045;-84
2022/12/14 07:50:09;;;;;;;1999.90;999.90;;;-3.40;23.10;;;;;;5064581;28;20109;-84
2022/12/14 07:52:35;;;;;;;1999.90;999.90;;;;;;;;;;5070810;28;20315;-84
2022/12/14 07:55:02;;;;;;;1999.90;999.90;;;;;;;;;;5069475;28;20071;-85
2022/12/14 07:57:28;;;;;;;1999.90;999.90;;;;;;;;;;5064371;28;20209;-85
2022/12/14 07:59:54;;;;;;;1999.90;999.90;;;;;;;;;;5058629;28;20052;-84
2022/12/14 08:02:19;;;;;;;1999.90;999.90;;;-3.00;1.00;;;;;;5069919;28;20044;-84
2022/12/14 08:04:46;;;;;;;1999.90;999.90;;;;;;;;;;5070392;28;20370;-84
2022/12/14 08:07:12;;;;;;;1999.90;999.90;;;;;;;;;;5073127;28;20056;-84
2022/12/14 08:09:38;;;;;;;1999.90;999.90;;;;;;;;;;5073496;28;20079;-84
2022/12/14 08:12:04;;;;;;;1999.90;999.90;;;-5.10;15.20;;;;;;5067998;28;20075;-85
2022/12/14 08:14:30;;;;;;;1999.90;999.90;;;;;;;;;;5059979;28;20053;-86
2022/12/14 08:16:55;;;;;;;1999.90;999.90;;;-3.30;8.20;;;;;;5071496;28;20102;-86
2022/12/14 08:19:21;;;;;;;1999.90;999.90;;;;;;;;;;5075073;28;20056;-85
2022/12/14 08:21:48;;;;;;;1999.90;999.90;;;;;;;;;;5075238;28;20127;-91
2022/12/14 08:24:15;;;;;;;1999.90;999.90;;;;;;;;;;5057246;28;20116;-85
2022/12/14 08:26:41;;;;;;;1999.90;999.90;;;-3.70;8.60;;;;;;5055285;28;20677;-85
2022/12/14 08:29:08;;;;;;;1999.90;999.90;;;;;;;;;;5056071;28;20427;-87
2022/12/14 08:31:34;;;;;;;1999.90;999.90;;;;;;;;;;5073722;28;20397;-84
2022/12/14 08:34:01;;;;;;;1999.90;999.90;;;-3.10;3.40;;;;;;5071950;28;20059;-86
2022/12/14 08:36:29;;;;;;;1999.90;999.90;;;-3.30;1.00;;;;;;5055832;28;20124;-86
2022/12/14 08:38:57;;;;;;;1999.90;999.90;;;-3.20;1.00;;;;;;5053708;28;20052;-85
2022/12/14 08:41:24;;;;;;;1999.90;999.90;;;-3.10;7.00;;;;;;5057143;28;20060;-85
2022/12/14 08:43:52;;;;;;;1999.90;999.90;;;-3.20;1.00;;;;;;5059662;28;20512;-87
2022/12/14 08:46:19;;;;;;;1999.90;999.90;;;-3.00;12.80;;;;;;5067325;28;20460;-85
2022/12/14 08:48:45;;;;;;;1999.90;999.90;;;;;;;;;;5073491;28;20044;-84
2022/12/14 08:51:11;;;;;;;1999.90;999.90;;;;;;;;;;5057365;28;20127;-84
2022/12/14 08:53:38;;;;;;;1999.90;999.90;;;-2.70;8.00;;;;;;5055156;28;20748;-84
2022/12/14 08:56:15;;;;;;;1999.90;999.90;;;-2.90;28.20;;;;;;5069409;28;20138;-84
2022/12/14 08:58:42;;;;;;;1999.90;999.90;;;-2.50;19.10;;;;;;5080740;28;20055;-89
2022/12/14 09:01:18;;;;;;;1999.90;999.90;;;-3.80;53.40;;;;;;5055008;28;20068;-83
2022/12/14 09:03:45;;;;;;;1999.90;999.90;;;-3.90;99.90;;;;;;5066933;28;20049;-85
2022/12/14 09:06:17;;;;;;;1999.90;999.90;;;-2.10;99.90;;;;;;5064235;28;20060;-85
2022/12/14 09:08:43;;;;;;;1999.90;999.90;;;0.50;99.90;;;;;;5056846;28;20055;-85
2022/12/14 09:11:13;;;;;;;1999.90;999.90;;;-2.10;99.90;;;;;;5069621;28;20032;-84
2022/12/14 09:13:39;;;;;;;1999.90;999.90;;;;;;;;;;5056975;28;20436;-86
2022/12/14 09:16:15;;;;;;;1999.90;999.90;;;-2.10;93.40;;;;;;5053255;28;20044;-85
2022/12/14 09:18:41;;;;;;;1999.90;999.90;;;-2.40;99.90;;;;;;5063439;28;20049;-87
2022/12/14 09:21:07;;;;;;;1999.90;999.90;;;-1.80;99.90;;;;;;5036912;28;20381;-83
2022/12/14 09:23:34;;;;;;;1999.90;999.90;;;-1.70;99.90;;;;;;5065777;28;20393;-84
2022/12/14 09:26:21;;;;;;;1999.90;999.90;;;-1.60;99.90;;;;;;5067489;28;20041;-83
2022/12/14 09:28:49;;;;;;;1999.90;999.90;;;-1.30;99.90;;;;;;5067331;28;20393;-84
2022/12/14 09:31:17;;;;;;;1999.90;999.90;;;-2.50;99.90;;;;;;5057425;28;20045;-85
2022/12/14 09:33:43;;;;;;;;;;;-1.40;99.90;;;;;;5053058;28;20392;-84
2022/12/14 09:36:18;;;;;;;1999.90;999.90;;;-2.60;99.90;;;;;;5056937;28;20003;-84
2022/12/14 09:38:44;;;;;;;1999.90;999.90;;;0.20;99.90;;;;;;5053352;28;20155;-85
2022/12/14 09:41:17;;;;;;;1999.90;999.90;;;-2.90;99.90;;;;;;5051964;28;20049;-85
2022/12/14 09:44:12;;;;;;;1999.90;999.90;;;-0.80;99.90;;;;;;5058317;28;20056;-84
2022/12/14 09:46:50;;;;;;;1999.90;999.90;;;-2.30;99.90;;;;;;5063209;28;20544;-83
2022/12/14 09:49:24;;;;;;;1999.90;999.90;;;-1.00;99.90;;;;;;5056775;28;20040;-84
2022/12/14 09:51:52;;;;;;;1999.90;999.90;;;-0.50;99.90;;;;;;5068295;28;20048;-83
2022/12/14 09:54:25;;;;;;;1999.90;999.90;;;-0.30;99.90;;;;;;5051229;28;20052;-83
2022/12/14 09:56:53;;;;;;;1999.90;999.90;;;1.20;99.90;;;;;;5062621;28;20126;-84
2022/12/14 09:59:19;;;;;;;1999.90;999.90;;;1.00;99.90;;;;;;5053874;28;20056;-84
2022/12/14 10:01:57;;;;;;;1999.90;999.90;;;-0.90;99.90;;;;;;5069185;28;20059;-84
2022/12/14 10:05:00;;;;;;;1999.90;999.90;;;1.20;99.90;;;;;;5070075;28;20566;-82
2022/12/14 10:07:47;;;;;;;1999.90;999.90;;;-0.40;99.90;;;;;;5038102;28;20047;-85
2022/12/14 10:10:18;;;;;;;1999.90;999.90;;;-1.00;99.90;;;;;;5063464;28;20049;-84
2022/12/14 10:12:56;;;;;;;1999.90;999.90;;;1.10;99.90;;;;;;5053079;28;20041;-84
2022/12/14 10:15:36;;;;;;;1999.90;999.90;;;-1.30;99.90;;;;;;5052731;28;20132;-84
2022/12/14 10:18:22;;;;;;;1999.90;999.90;;;2.40;99.90;;;;;;5051789;28;20508;-86
2022/12/14 10:21:05;;;;;;;1999.90;999.90;;;0.90;99.90;;;;;;5056864;28;20431;-85
2022/12/14 10:23:31;;;;;;;1999.90;999.90;;;1.60;99.90;;;;;;5071751;28;20076;-85
2022/12/14 10:26:02;;;;;;;1999.90;999.90;;;1.00;99.90;;;;;;5058595;28;20044;-85
2022/12/14 10:28:40;;;;;;;1999.90;999.90;;;0.90;99.90;;;;;;5054955;28;20053;-82
2022/12/14 10:31:11;;;;;;;1999.90;999.90;;;0.80;93.50;;;;;;5063265;28;20116;-83
2022/12/14 10:33:44;;;;;;;1999.90;999.90;;;0.80;97.80;;;;;;5055145;28;20490;-83
2022/12/14 10:36:28;;;;;;;1999.90;999.90;;;1.70;96.00;;;;;;5064675;28;20499;-84
2022/12/14 10:39:06;;;;;;;1999.90;999.90;;;0.80;1.00;;;;;;5051308;28;20053;-84
2022/12/14 10:41:51;;;;;;;1999.90;999.90;;;0.50;56.30;;;;;;5053340;28;20047;-86
2022/12/14 10:44:29;;;;;;;1999.90;999.90;;;1.70;54.50;;;;;;5063355;28;20049;-87
2022/12/14 10:47:03;;;;;;;1999.90;999.90;;;0.40;50.80;;;;;;5053402;28;20106;-86
2022/12/14 10:49:43;;;;;;;1999.90;999.90;;;0.50;75.00;;;;;;5060371;28;20051;-86
2022/12/14 10:52:17;;;;;;;1999.90;999.90;;;1.90;59.80;;;;;;5069277;28;20051;-87
2022/12/14 10:54:50;;;;;;;1999.90;999.90;;;2.00;99.90;;;;;;5068921;28;20079;-86
2022/12/14 10:57:25;;;;;;;1999.90;999.90;;;0.30;91.70;;;;;;5066406;28;20136;-88
2022/12/14 10:59:51;;;;;;;1999.90;999.90;;;0.90;55.30;;;;;;5070803;28;20056;-86
2022/12/14 11:02:26;;;;;;;1999.90;999.90;;;0.40;99.90;;;;;;5071418;28;20114;-86
2022/12/14 11:05:10;;;;;;;1999.90;999.90;;;0.70;99.90;;;;;;5061296;28;20485;-86
2022/12/14 11:07:38;;;;;;;1999.90;999.90;;;0.70;99.90;;;;;;5055940;28;20053;-86
2022/12/14 11:10:25;;;;;;;1999.90;999.90;;;2.80;99.90;;;;;;5065052;28;20045;-85
2022/12/14 11:13:11;;;;;;;1999.90;999.90;;;3.50;99.90;;;;;;5053339;28;20111;-86
2022/12/14 11:15:41;;;;;;;1999.90;999.90;;;1.00;99.90;;;;;;5044379;28;20049;-86
2022/12/14 11:18:16;;;;;;;1999.90;999.90;;;2.50;99.90;;;;;;5053675;28;20076;-86
2022/12/14 11:20:52;;;;;;;1999.90;999.90;;;1.20;99.90;;;;;;5072344;28;20079;-87
2022/12/14 11:23:25;;;;;;;1999.90;999.90;;;0.90;99.90;;;;;;5068792;28;20056;-87
2022/12/14 11:25:59;;;;;;;1999.90;999.90;;;2.00;99.90;;;;;;5070961;28;20055;-87
2022/12/14 11:28:31;;;;;;;1999.90;999.90;;;1.20;99.90;;;;;;5056041;28;20068;-87
2022/12/14 11:31:10;;;;;;;1999.90;999.90;;;-0.20;99.90;;;;;;5069398;28;20099;-86
2022/12/14 11:33:40;;;;;;;1999.90;999.90;;;2.30;99.90;;;;;;5065583;28;20076;-86
2022/12/14 11:36:07;;;;;;;1999.90;999.90;;;0.90;99.90;;;;;;5072491;28;20503;-86
2022/12/14 11:38:33;;;;;;;1999.90;999.90;;;2.80;99.90;;;;;;5070039;28;20128;-87
2022/12/14 11:41:02;;;;;;;1999.90;999.90;;;1.80;99.90;;;;;;5063356;28;20044;-87
2022/12/14 11:43:37;;;;;;;1999.90;999.90;;;1.80;99.90;;;;;;5071439;28;20045;-87
2022/12/14 11:46:04;;;;;;;1999.90;999.90;;;2.60;99.90;;;;;;5072413;28;20087;-87
2022/12/14 11:48:30;;;;;;;1999.90;999.90;;;0.30;99.90;;;;;;5055149;28;20049;-87
2022/12/14 11:51:11;;;;;;;1999.90;999.90;;;1.50;99.90;;;;;;5042337;28;20131;-87
2022/12/14 11:53:37;;;;;;;1999.90;999.90;;;1.50;99.90;;;;;;5074905;28;20056;-87
2022/12/14 11:56:11;;;;;;;1999.90;999.90;;;1.40;91.90;;;;;;5074111;28;20055;-87
2022/12/14 11:58:46;;;;;;;1999.90;999.90;;;1.50;90.30;;;;;;5076040;28;20052;-87
2022/12/14 12:01:15;;;;;;;1999.90;999.90;;;-0.50;70.30;;;;;;5071678;28;20040;-88
2022/12/14 12:03:52;;;;;;;1999.90;999.90;;;4.20;9.20;;;;;;5055567;28;20080;-87
2022/12/14 12:06:23;;;;;;;1999.90;999.90;;;2.70;1.00;;;;;;5055880;28;20049;-87
2022/12/14 12:09:01;;;;;;;1999.90;999.90;;;3.00;1.00;;;;;;5055236;28;20068;-87
2022/12/14 12:11:30;;;;;;;1999.90;999.90;;;1.50;1.00;;;;;;5056634;28;20052;-87
2022/12/14 12:14:06;;;;;;;1999.90;999.90;;;1.60;1.00;;;;;;5054108;28;20461;-87
2022/12/14 12:16:32;;;;;;;1999.90;999.90;;;1.60;10.00;;;;;;5055651;28;20052;-87
2022/12/14 12:19:05;;;;;;;1999.90;999.90;;;1.30;9.50;;;;;;5054720;28;20060;-87
2022/12/14 12:21:34;;;;;;;1999.90;999.90;;;3.20;24.30;;;;;;5054150;28;20417;-87
2022/12/14 12:24:21;;;;;;;1999.90;999.90;;;-0.10;27.10;;;;;;5069664;28;20508;-87
2022/12/14 12:26:57;;;;;;;1999.90;999.90;;;2.20;1.00;;;;;;5074630;28;20473;-87
2022/12/14 12:29:26;;;;;;;1999.90;999.90;;;1.50;87.80;;;;;;5074130;28;20370;-87
2022/12/14 12:32:11;;;;;;;1999.90;999.90;;;2.60;99.90;;;;;;5057690;28;20044;-87
2022/12/14 12:35:03;;;;;;;1999.90;999.90;;;1.60;99.90;;;;;;5037504;28;20057;-86
2022/12/14 12:37:49;;;;;;;1999.90;999.90;;;3.20;99.90;;;;;;5049132;28;20099;-87
2022/12/14 12:40:21;;;;;;;1999.90;999.90;;;0.10;99.90;;;;;;5054358;28;20049;-82
2022/12/14 12:43:02;;;;;;;1999.90;999.90;;;1.20;90.30;;;;;;5071978;28;20393;-87
2022/12/14 12:45:28;;;;;;;1999.90;999.90;;;;;;;;;;5074750;28;20056;-87
2022/12/14 12:48:20;;;;;;;1999.90;999.90;;;2.20;99.90;;;;;;5074407;28;20056;-87
2022/12/14 12:50:49;;;;;;;1999.90;999.90;;;1.40;99.90;;;;;;5067275;28;20040;-86
2022/12/14 12:53:20;;;;;;;1999.90;999.90;;;3.10;99.90;;;;;;5069679;28;20052;-86
2022/12/14 12:55:55;;;;;;;1999.90;999.90;;;2.20;99.90;;;;;;5052718;28;20505;-86